»·PEaware :: N347CD KAVX-KSAN

N347CD :: KAVX-KSAN

FLIGHT INFORMATION

Flight Status: Arrived
Operator: Privately registered:
United States
More flights under this callsign
Pilot: Daniel C. (3642)
Aircraft: CIRRUS SR-22
(SR22)
More flights by this aircraft type
Origin: KAVX Catalina
United States
Destination: KSAN San Diego Intl-Lindbergh
United States
More flights between these airports :: More routes between these airports
Route: SXC V208 OCN V23 MZB
File this flight plan on PilotEdge
Remarks: LYNDI RNAN(GPS) Y RWY 27
Altitude:
(Current/Filed)
5,000ft
Speed:
(Current/Filed)
165kts
Departed: 03-Oct-17 01:54 PM
Arrived: 03-Oct-17 02:45 PM
Distance/Time
Traveled:
74nm/0:51
Distance/Time
To Go:
Arrived

Flight Plot

Page will automatically refresh every two minutes.


Map Options




Map Legend


Flown Route
Filed Route
Departure Airport
Arrival Airport
Navaid (VOR, NDB)
Fix

Horizontal Profiles

Position Reports

Time Latitude Longitude Heading Altitude Ground
Speed
03-Oct-17 13:35 33.403492 -118.415230 231 1604ft 0kts
03-Oct-17 13:36 33.403492 -118.415230 231 1604ft 0kts
03-Oct-17 13:37 33.403481 -118.415574 270 1604ft 5kts
03-Oct-17 13:38 33.404130 -118.417153 19 1604ft 6kts
03-Oct-17 13:39 33.405906 -118.414275 49 1604ft 18kts
03-Oct-17 13:40 33.407341 -118.411477 9 1604ft 0kts
03-Oct-17 13:41 33.407341 -118.411477 9 1604ft 0kts
03-Oct-17 13:42 33.407341 -118.411477 9 1604ft 0kts
03-Oct-17 13:43 33.407341 -118.411477 9 1604ft 0kts
03-Oct-17 13:44 33.407341 -118.411477 9 1604ft 0kts
03-Oct-17 13:45 33.407341 -118.411477 9 1604ft 0kts
03-Oct-17 13:46 33.407341 -118.411477 9 1604ft 0kts
03-Oct-17 13:47 33.407341 -118.411477 9 1604ft 0kts
03-Oct-17 13:48 33.407341 -118.411477 9 1604ft 0kts
03-Oct-17 13:49 33.407341 -118.411477 9 1604ft 0kts
03-Oct-17 13:50 33.407341 -118.411477 9 1604ft 0kts
03-Oct-17 13:51 33.407341 -118.411477 9 1604ft 0kts
03-Oct-17 13:52 33.407341 -118.411477 9 1604ft 0kts
03-Oct-17 13:53 33.407341 -118.411477 9 1604ft 0kts
03-Oct-17 13:54 33.407341 -118.411477 9 1604ft 0kts
03-Oct-17 13:55 33.407341 -118.411477 9 1604ft 0kts
03-Oct-17 13:56 33.407341 -118.411477 9 1604ft 0kts
03-Oct-17 13:57 33.407454 -118.411510 320 1604ft 3kts
03-Oct-17 13:58 33.399821 -118.424030 230 1772ft 93kts
03-Oct-17 13:59 33.376124 -118.426542 119 2624ft 123kts
03-Oct-17 14:00 33.369984 -118.383502 97 3449ft 138kts
03-Oct-17 14:01 33.364016 -118.337170 97 4252ft 143kts
03-Oct-17 14:02 33.357871 -118.290045 97 5052ft 143kts
03-Oct-17 14:03 33.351004 -118.237270 97 5058ft 167kts
03-Oct-17 14:04 33.343867 -118.183072 97 5058ft 163kts
03-Oct-17 14:05 33.336798 -118.129701 98 5059ft 162kts
03-Oct-17 14:06 33.329780 -118.076872 97 5094ft 160kts
03-Oct-17 14:07 33.322765 -118.023999 98 5095ft 161kts
03-Oct-17 14:08 33.315685 -117.970897 98 5096ft 162kts
03-Oct-17 14:09 33.308169 -117.915179 97 5096ft 174kts
03-Oct-17 14:10 33.300512 -117.857575 98 5096ft 176kts
03-Oct-17 14:11 33.292701 -117.799309 98 5096ft 177kts
03-Oct-17 14:12 33.284856 -117.741253 98 5096ft 177kts
03-Oct-17 14:13 33.276941 -117.682869 98 5096ft 179kts
03-Oct-17 14:14 33.268912 -117.623872 98 5095ft 180kts
03-Oct-17 14:15 33.260800 -117.565082 98 5096ft 178kts
03-Oct-17 14:16 33.252821 -117.506663 99 5095ft 178kts
03-Oct-17 14:17 33.244775 -117.448383 98 5095ft 178kts
03-Oct-17 14:18 33.216701 -117.407526 160 5096ft 179kts
03-Oct-17 14:19 33.169319 -117.387834 159 5095ft 180kts
03-Oct-17 14:20 33.122012 -117.367961 159 5096ft 181kts
03-Oct-17 14:21 33.074508 -117.347942 160 5095ft 181kts
03-Oct-17 14:22 33.027261 -117.328098 159 5096ft 180kts
03-Oct-17 14:23 32.979808 -117.308187 159 5095ft 180kts
03-Oct-17 14:24 32.932443 -117.288331 160 5077ft 181kts
03-Oct-17 14:25 32.884941 -117.268506 159 5077ft 181kts
03-Oct-17 14:26 32.837402 -117.248665 160 5077ft 181kts
03-Oct-17 14:27 32.810968 -117.205339 101 5078ft 178kts
03-Oct-17 14:28 32.800440 -117.147552 100 5077ft 178kts
03-Oct-17 14:29 32.790007 -117.089914 101 5077ft 178kts
03-Oct-17 14:30 32.779756 -117.032244 101 5077ft 178kts
03-Oct-17 14:31 32.769549 -116.975612 100 5076ft 168kts
03-Oct-17 14:32 32.760319 -116.923919 100 5076ft 153kts
03-Oct-17 14:33 32.751642 -116.876351 100 5076ft 142kts
03-Oct-17 14:34 32.743296 -116.831021 101 5078ft 141kts
03-Oct-17 14:35 32.734972 -116.785129 101 5078ft 142kts
03-Oct-17 14:36 32.725961 -116.739347 121 5076ft 143kts
03-Oct-17 14:37 32.700173 -116.752767 264 4752ft 137kts
03-Oct-17 14:38 32.696153 -116.795830 264 4243ft 136kts
03-Oct-17 14:39 32.691697 -116.842113 264 4032ft 140kts
03-Oct-17 14:40 32.685983 -116.887156 251 4033ft 136kts
03-Oct-17 14:41 32.673639 -116.928667 251 4032ft 130kts
03-Oct-17 14:42 32.680119 -116.971585 288 3588ft 134kts
03-Oct-17 14:43 32.690674 -117.014441 287 3092ft 140kts
03-Oct-17 14:44 32.701018 -117.057332 286 2514ft 114kts
03-Oct-17 14:45 32.710138 -117.094039 288 1769ft 109kts
03-Oct-17 14:46 32.718178 -117.126907 287 1130ft 103kts
03-Oct-17 14:47 32.725649 -117.158425 289 502ft 92kts
03-Oct-17 14:48 32.732155 -117.183803 285 19ft 45kts
03-Oct-17 14:49 32.732723 -117.188476 196 19ft 12kts
03-Oct-17 14:50 32.732408 -117.189146 289 19ft 4kts
03-Oct-17 14:51 32.731658 -117.191350 116 19ft 0kts

Navigation Log

Ident Type
1. KAVX Airport
2. SXC Navaid
3. AVOLS Fix
4. PACIF Fix
5. HUBRD Fix
6. OCN Navaid
7. HURSI Fix
8. CARIF Fix
9. MZB Navaid
10. KSAN Airport